Time;durP1;ratioP1;P1;durP2;ratioP2;P2;SDS_P1;SDS_P2;PMS_P1;PMS_P2;Temp;Humidity;BMP_temperature;BMP_pressure;BME280_temperature;BME280_humidity;BME280_pressure;Samples;Min_cycle;Max_cycle;Signal;HPM_P1;HPM_P2
2022/03/13 00:00:54;;;;;;;0.90;0.90;;;;;;;-9.04;81.14;93257.19;4999005;28;20576;-74
2022/03/13 00:03:22;;;;;;;1.57;1.57;;;;;;;-9.04;81.78;93244.97;4996421;28;20562;-74
2022/03/13 00:05:52;;;;;;;1.00;1.00;;;;;;;-8.93;81.63;93233.13;4996446;28;20234;-75
2022/03/13 00:08:27;;;;;;;0.70;0.70;;;;;;;-8.98;81.23;93225.63;4998539;28;20652;-75
2022/03/13 00:10:57;;;;;;;0.80;0.80;;;;;;;-8.99;80.47;93237.78;4997161;28;20473;-75
2022/03/13 00:13:30;;;;;;;0.70;0.70;;;;;;;-9.07;81.63;93237.50;4997572;28;20660;-75
2022/03/13 00:15:59;;;;;;;0.90;0.90;;;;;;;-8.89;81.23;93237.38;4997056;28;20213;-75
2022/03/13 00:18:26;;;;;;;0.87;0.87;;;;;;;-8.97;82.13;93233.81;4996470;28;20590;-75
2022/03/13 00:20:54;;;;;;;0.70;0.70;;;;;;;-8.93;81.22;93240.47;4996023;28;20662;-75
2022/03/13 00:23:23;;;;;;;0.80;0.80;;;;;;;-9.02;81.93;93245.88;4996062;28;20560;-75
2022/03/13 00:25:51;;;;;;;0.80;0.80;;;;;;;-8.94;82.06;93236.34;4996829;28;20589;-75
2022/03/13 00:28:18;;;;;;;0.90;0.90;;;;;;;-8.88;81.70;93243.94;4995975;28;20586;-76
2022/03/13 00:30:45;;;;;;;1.00;1.00;;;;;;;-8.81;80.25;93250.75;4996271;28;20579;-75
2022/03/13 00:33:12;;;;;;;0.70;0.70;;;;;;;-8.99;81.13;93242.69;4996018;28;20590;-75
2022/03/13 00:35:40;;;;;;;1.03;0.83;;;;;;;-9.22;81.00;93220.59;4996257;28;20606;-75
2022/03/13 00:38:08;;;;;;;0.90;0.90;;;;;;;-9.07;81.12;93244.00;4996133;28;20232;-75
2022/03/13 00:40:37;;;;;;;0.70;0.70;;;;;;;-9.02;81.10;93238.53;4996050;28;20622;-75
2022/03/13 00:43:05;;;;;;;1.30;1.20;;;;;;;-9.20;81.08;93229.63;4996010;28;20596;-75
2022/03/13 00:45:32;;;;;;;0.80;0.80;;;;;;;-9.34;81.88;93212.78;4995427;28;20637;-75
2022/03/13 00:47:59;;;;;;;0.87;0.87;;;;;;;-9.27;82.17;93230.97;4995951;28;20593;-75
2022/03/13 00:50:27;;;;;;;0.80;0.80;;;;;;;-9.08;81.56;93227.66;4996607;28;20582;-75
2022/03/13 00:52:56;;;;;;;0.90;0.90;;;;;;;-9.07;80.66;93224.44;4995740;28;20496;-75
2022/03/13 00:55:23;;;;;;;0.90;0.90;;;;;;;-9.05;81.26;93228.59;4997112;28;20618;-75
2022/03/13 00:57:52;;;;;;;0.73;0.73;;;;;;;-9.13;80.14;93237.28;5000048;28;20487;-75
2022/03/13 01:00:19;;;;;;;1.10;1.10;;;;;;;-9.30;80.62;93225.97;5000808;28;20508;-75
2022/03/13 01:02:46;;;;;;;0.70;0.70;;;;;;;-9.15;80.66;93226.56;4995344;28;20247;-75
2022/03/13 01:05:23;;;;;;;0.80;0.80;;;;;;;-9.00;79.21;93232.06;4995374;28;20664;-75
2022/03/13 01:07:51;;;;;;;0.90;0.90;;;;;;;-9.09;80.15;93231.72;4996235;28;20578;-75
2022/03/13 01:10:18;;;;;;;0.87;0.87;;;;;;;-9.15;80.47;93221.69;4995862;28;20264;-75
2022/03/13 01:12:46;;;;;;;0.70;0.70;;;;;;;-9.16;80.03;93219.16;4997139;28;20589;-75
2022/03/13 01:15:15;;;;;;;0.70;0.70;;;;;;;-9.06;79.30;93228.53;4995415;28;20589;-75
2022/03/13 01:17:43;;;;;;;0.80;0.80;;;;;;;-9.01;79.07;93219.78;4995410;28;20235;-75
2022/03/13 01:20:18;;;;;;;0.83;0.83;;;;;;;-8.96;78.96;93225.69;4995789;28;20260;-75
2022/03/13 01:22:46;;;;;;;0.80;0.80;;;;;;;-9.16;79.06;93231.41;4995949;28;20231;-75
2022/03/13 01:25:14;;;;;;;0.73;0.73;;;;;;;-9.28;79.95;93225.25;4996134;28;20237;-75
2022/03/13 01:27:42;;;;;;;0.90;0.90;;;;;;;-9.52;80.93;93204.69;4996487;28;20516;-75
2022/03/13 01:30:13;;;;;;;0.90;0.90;;;;;;;-9.48;81.65;93213.00;4995366;28;20666;-75
2022/03/13 01:32:42;;;;;;;0.80;0.80;;;;;;;-9.43;81.54;93218.91;4995479;28;20526;-75
2022/03/13 01:35:10;;;;;;;0.80;0.80;;;;;;;-9.42;81.28;93205.94;4994754;28;20666;-75
2022/03/13 01:37:40;;;;;;;0.80;0.80;;;;;;;-9.39;80.08;93210.91;4993726;28;20224;-75
2022/03/13 01:40:10;;;;;;;0.90;0.90;;;;;;;-9.39;80.79;93199.53;4993919;28;20496;-75
2022/03/13 01:42:39;;;;;;;0.70;0.70;;;;;;;-9.30;80.08;93203.97;4994912;28;20585;-75
2022/03/13 01:45:08;;;;;;;1.00;1.00;;;;;;;-9.17;78.80;93212.59;4994983;28;20467;-76
2022/03/13 01:47:35;;;;;;;0.87;0.87;;;;;;;-9.10;79.40;93212.06;4995719;28;20602;-75
2022/03/13 01:50:04;;;;;;;1.03;1.03;;;;;;;-9.04;78.60;93219.66;4995001;28;20532;-75
2022/03/13 01:52:32;;;;;;;0.77;0.77;;;;;;;-9.12;79.39;93211.16;4995107;28;20576;-75
2022/03/13 01:54:59;;;;;;;0.80;0.80;;;;;;;-9.31;79.79;93212.91;4999379;28;20565;-75
2022/03/13 01:57:28;;;;;;;0.90;0.90;;;;;;;-9.53;80.55;93197.31;4999513;28;20557;-75
2022/03/13 01:59:59;;;;;;;0.80;0.80;;;;;;;-9.63;81.24;93191.19;5018015;28;20619;-75
2022/03/13 02:02:29;;;;;;;0.70;0.70;;;;;;;-9.51;81.86;93203.94;5019196;28;20200;-75
2022/03/13 02:04:57;;;;;;;0.80;0.80;;;;;;;-9.56;80.58;93192.28;5018496;28;20569;-75
2022/03/13 02:07:29;;;;;;;0.63;0.63;;;;;;;-9.55;80.63;93214.38;5018329;28;20463;-75
2022/03/13 02:09:57;;;;;;;0.80;0.80;;;;;;;-9.72;80.63;93199.00;5018232;28;20197;-75
2022/03/13 02:12:26;;;;;;;0.80;0.80;;;;;;;-9.62;80.80;93210.00;5017812;28;20577;-75
2022/03/13 02:14:54;;;;;;;0.80;0.80;;;;;;;-9.51;80.95;93207.97;5018023;28;20211;-75
2022/03/13 02:17:26;;;;;;;0.70;0.70;;;;;;;-9.59;80.77;93197.91;5018410;28;20541;-75
2022/03/13 02:19:55;;;;;;;1.00;1.00;;;;;;;-9.43;80.73;93216.47;5018075;28;20592;-75
2022/03/13 02:22:22;;;;;;;1.00;1.00;;;;;;;-9.46;80.13;93219.63;5018459;28;20212;-75
2022/03/13 02:24:52;;;;;;;0.80;0.80;;;;;;;-9.29;79.53;93220.28;5017723;28;20589;-75
2022/03/13 02:27:22;;;;;;;1.37;1.37;;;;;;;-9.45;80.73;93194.41;5017734;28;20460;-75
2022/03/13 02:29:50;;;;;;;1.37;1.37;;;;;;;-9.48;80.45;93204.06;5017629;28;20593;-75
2022/03/13 02:32:19;;;;;;;2.80;2.60;;;;;;;-9.66;79.98;93206.59;5018628;28;20552;-75
2022/03/13 02:34:46;;;;;;;0.97;0.97;;;;;;;-9.74;80.74;93209.50;5017695;28;20593;-75
2022/03/13 02:37:30;;;;;;;0.80;0.80;;;;;;;-9.87;80.77;93204.88;5017424;28;20611;-75
2022/03/13 02:39:58;;;;;;;0.80;0.80;;;;;;;-9.87;81.06;93202.44;5017877;28;20572;-75
2022/03/13 02:42:25;;;;;;;2.00;1.67;;;;;;;-9.81;82.13;93196.22;5017697;28;20593;-75
2022/03/13 02:44:52;;;;;;;1.10;1.10;;;;;;;-9.80;81.07;93201.94;5018405;28;20276;-75
2022/03/13 02:47:20;;;;;;;0.80;0.80;;;;;;;-9.90;81.60;93193.38;5017893;28;20475;-76
2022/03/13 02:49:47;;;;;;;0.80;0.80;;;;;;;-9.98;82.05;93193.84;5017624;28;20596;-76
2022/03/13 02:52:14;;;;;;;0.70;0.70;;;;;;;-9.90;81.55;93186.03;5017746;28;20633;-75
2022/03/13 02:54:41;;;;;;;1.03;1.03;;;;;;;-9.94;82.01;93196.47;5017502;28;20487;-75
2022/03/13 02:57:10;;;;;;;0.77;0.77;;;;;;;-9.86;81.74;93204.97;5017617;28;20566;-76
2022/03/13 02:59:37;;;;;;;1.37;1.37;;;;;;;-9.86;81.75;93202.53;5017329;28;20596;-76
2022/03/13 03:02:05;;;;;;;0.93;0.93;;;;;;;-9.94;81.58;93198.06;5014411;28;20671;-75
2022/03/13 03:04:32;;;;;;;0.70;0.70;;;;;;;-9.79;81.08;93215.78;5015403;28;20587;-75
2022/03/13 03:07:01;;;;;;;0.87;0.87;;;;;;;-9.78;80.49;93219.91;5009001;28;20300;-75
2022/03/13 03:09:30;;;;;;;1.17;1.17;;;;;;;-9.92;81.13;93214.47;5009917;28;20538;-75
2022/03/13 03:11:59;;;;;;;1.07;1.07;;;;;;;-10.12;80.81;93208.72;5010009;28;20225;-75
2022/03/13 03:14:30;;;;;;;0.90;0.90;;;;;;;-10.17;81.08;93197.97;5013876;28;20621;-75
2022/03/13 03:16:58;;;;;;;0.83;0.83;;;;;;;-10.11;80.94;93210.41;5008056;28;20599;-75
2022/03/13 03:19:25;;;;;;;0.80;0.80;;;;;;;-10.18;81.20;93213.38;5007714;28;20668;-75
2022/03/13 03:21:53;;;;;;;0.90;0.90;;;;;;;-10.10;80.82;93216.13;5008684;28;20592;-75
2022/03/13 03:24:22;;;;;;;1.10;1.10;;;;;;;-10.09;80.55;93223.53;5013527;28;20584;-75
2022/03/13 03:26:50;;;;;;;1.60;1.53;;;;;;;-10.26;79.65;93224.44;5009064;28;20259;-75
2022/03/13 03:29:17;;;;;;;1.13;1.13;;;;;;;-10.42;80.95;93211.50;5000927;28;20216;-75
2022/03/13 03:31:47;;;;;;;1.07;1.07;;;;;;;-10.29;79.82;93216.97;5006761;28;20563;-75
2022/03/13 03:34:18;;;;;;;0.70;0.70;;;;;;;-10.30;80.65;93220.19;5012646;28;20209;-75
2022/03/13 03:36:48;;;;;;;1.10;1.10;;;;;;;-10.45;81.45;93208.94;4997302;28;20543;-75
2022/03/13 03:39:16;;;;;;;0.70;0.70;;;;;;;-10.46;81.71;93210.53;4996615;28;20496;-75
2022/03/13 03:41:45;;;;;;;0.90;0.90;;;;;;;-10.34;81.51;93211.06;4996842;28;20700;-75
2022/03/13 03:44:12;;;;;;;0.80;0.80;;;;;;;-10.48;81.26;93207.19;4996390;28;20204;-75
2022/03/13 03:46:40;;;;;;;0.90;0.90;;;;;;;-10.66;81.52;93190.13;4996768;28;20523;-75
2022/03/13 03:49:09;;;;;;;0.90;0.90;;;;;;;-10.61;81.64;93200.94;4996380;28;20208;-75
2022/03/13 03:51:37;;;;;;;1.00;1.00;;;;;;;-10.68;82.08;93186.78;4996608;28;20207;-75
2022/03/13 03:54:06;;;;;;;1.13;1.13;;;;;;;-10.81;82.47;93164.22;4996059;28;20506;-75
2022/03/13 03:56:34;;;;;;;1.10;1.10;;;;;;;-10.71;82.65;93191.53;4997190;28;20557;-75
2022/03/13 03:59:01;;;;;;;1.10;1.10;;;;;;;-10.77;82.96;93183.13;5005548;28;20613;-75
2022/03/13 04:01:36;;;;;;;1.67;1.50;;;;;;;-10.61;82.66;93196.06;4996063;28;20558;-75
2022/03/13 04:04:05;;;;;;;1.27;1.27;;;;;;;-10.47;81.93;93199.09;4996362;28;20506;-75
2022/03/13 04:06:34;;;;;;;0.83;0.83;;;;;;;-10.55;81.54;93197.94;4996385;28;20575;-75
2022/03/13 04:09:01;;;;;;;1.13;1.13;;;;;;;-10.70;80.51;93197.25;4997051;28;20648;-75
2022/03/13 04:11:28;;;;;;;1.67;1.57;;;;;;;-10.78;80.87;93191.19;4996275;28;20207;-75
2022/03/13 04:13:55;;;;;;;0.90;0.90;;;;;;;-10.66;80.71;93190.13;4996525;28;20498;-75
2022/03/13 04:16:22;;;;;;;1.03;1.03;;;;;;;-10.81;81.00;93167.50;4995624;28;20499;-75
2022/03/13 04:18:50;;;;;;;1.77;1.77;;;;;;;-10.73;80.89;93190.63;4996198;28;20607;-75
2022/03/13 04:21:17;;;;;;;0.70;0.70;;;;;;;-10.58;80.00;93195.34;4996714;28;20603;-75
2022/03/13 04:23:46;;;;;;;0.90;0.90;;;;;;;-10.69;81.02;93189.16;4995945;28;20609;-75
2022/03/13 04:26:14;;;;;;;1.13;1.13;;;;;;;-10.76;80.85;93194.56;4995685;28;20507;-75
2022/03/13 04:28:41;;;;;;;0.93;0.93;;;;;;;-10.79;81.27;93189.53;4995835;28;20572;-75
2022/03/13 04:31:08;;;;;;;2.30;2.23;;;;;;;-10.61;80.23;93193.63;4995879;28;20549;-75
2022/03/13 04:33:37;;;;;;;0.80;0.80;;;;;;;-10.66;80.76;93191.75;4997069;28;20219;-75
2022/03/13 04:36:12;;;;;;;1.07;1.07;;;;;;;-10.53;80.78;93198.81;4995863;28;20581;-75
2022/03/13 04:38:39;;;;;;;1.03;1.03;;;;;;;-10.55;81.25;93190.59;4995624;28;20644;-75
2022/03/13 04:41:08;;;;;;;0.83;0.83;;;;;;;-10.74;79.93;93190.56;4995926;28;20352;-75
2022/03/13 04:43:35;;;;;;;1.63;1.63;;;;;;;-10.50;79.08;93203.84;4995941;28;20561;-75
2022/03/13 04:46:02;;;;;;;1.10;1.10;;;;;;;-10.56;79.52;93197.09;4996421;28;20246;-75
2022/03/13 04:48:32;;;;;;;1.53;1.53;;;;;;;-10.60;80.23;93202.63;4995980;28;20208;-75
2022/03/13 04:51:00;;;;;;;1.17;1.17;;;;;;;-10.63;80.82;93204.91;4996724;28;20503;-75
2022/03/13 04:53:28;;;;;;;1.00;1.00;;;;;;;-10.61;81.66;93197.66;4996290;28;20494;-75
2022/03/13 04:55:56;;;;;;;0.90;0.90;;;;;;;-10.55;81.27;93200.38;4995751;28;20723;-75
2022/03/13 04:58:24;;;;;;;0.73;0.73;;;;;;;-10.57;80.82;93200.28;5004419;28;20277;-75
2022/03/13 05:00:52;;;;;;;1.70;1.70;;;;;;;-10.55;81.19;93196.31;5014838;28;20497;-75
2022/03/13 05:03:19;;;;;;;1.83;1.83;;;;;;;-10.57;81.64;93190.53;5014798;28;20235;-75
2022/03/13 05:05:46;;;;;;;0.80;0.80;;;;;;;-10.33;81.79;93192.38;4995653;28;20310;-75
2022/03/13 05:08:15;;;;;;;5.10;3.33;;;;;;;-10.24;81.50;93196.03;4995986;28;20705;-75
2022/03/13 05:10:43;;;;;;;1.47;1.47;;;;;;;-10.11;80.47;93204.69;4996717;28;20527;-75
2022/03/13 05:13:13;;;;;;;2.20;2.20;;;;;;;-10.11;80.47;93204.69;5004496;28;20567;-75
2022/03/13 05:15:42;;;;;;;2.50;2.40;;;;;;;-10.08;80.18;93203.19;5014420;28;20463;-75
2022/03/13 05:18:10;;;;;;;2.73;2.53;;;;;;;-9.83;80.33;93201.78;5015411;28;20706;-75
2022/03/13 05:20:37;;;;;;;1.37;1.27;;;;;;;-9.86;81.00;93201.69;5014750;28;20612;-75
2022/03/13 05:23:06;;;;;;;0.80;0.80;;;;;;;-9.65;80.91;93200.94;5015001;28;20538;-75
2022/03/13 05:25:34;;;;;;;1.33;1.33;;;;;;;-9.51;80.56;93195.75;5015118;28;20466;-75
2022/03/13 05:28:20;;;;;;;2.23;2.23;;;;;;;-9.28;78.82;93209.72;5015610;28;20685;-75
2022/03/13 05:30:49;;;;;;;2.07;2.07;;;;;;;-9.12;77.88;93214.44;5019022;28;20603;-75
2022/03/13 05:33:16;;;;;;;2.13;2.03;;;;;;;-9.02;77.73;93211.59;5000184;28;20291;-76
2022/03/13 05:35:43;;;;;;;1.20;1.20;;;;;;;-8.84;78.57;93212.28;5017155;28;20558;-75
2022/03/13 05:38:10;;;;;;;2.07;1.97;;;;;;;-8.66;76.15;93224.38;5014929;28;20575;-74
2022/03/13 05:40:38;;;;;;;2.30;2.30;;;;;;;-8.54;76.63;93222.41;5014017;28;20635;-73
2022/03/13 05:43:05;;;;;;;2.03;2.03;;;;;;;-8.48;76.94;93231.59;5012744;28;20616;-73
2022/03/13 05:45:33;;;;;;;2.33;2.33;;;;;;;-8.54;77.23;93227.31;5012947;28;20643;-74
2022/03/13 05:48:08;;;;;;;2.80;2.80;;;;;;;-8.53;78.17;93206.94;5009253;28;20591;-75
2022/03/13 05:50:35;;;;;;;1.80;1.80;;;;;;;-8.43;78.95;93215.44;5005387;28;20561;-75
2022/03/13 05:53:02;;;;;;;2.37;2.30;;;;;;;-8.30;77.50;93217.56;5007910;28;20618;-75
2022/03/13 05:55:31;;;;;;;2.13;2.13;;;;;;;-8.41;77.25;93229.44;5014760;28;20573;-76
2022/03/13 05:58:00;;;;;;;3.20;3.13;;;;;;;-8.39;77.44;93219.66;5011649;28;20196;-75
2022/03/13 06:00:32;;;;;;;2.13;2.13;;;;;;;-8.41;77.06;93218.81;5015397;28;20496;-74
2022/03/13 06:03:00;;;;;;;2.37;2.30;;;;;;;-8.65;77.77;93198.28;5014784;28;20586;-74
2022/03/13 06:05:35;;;;;;;2.07;2.07;;;;;;;-8.49;76.25;93213.59;5016326;28;20532;-75
2022/03/13 06:08:03;;;;;;;1.43;1.43;;;;;;;-8.45;75.87;93217.03;5015398;28;20596;-77
2022/03/13 06:10:30;;;;;;;1.30;1.30;;;;;;;-8.52;77.13;93200.44;5012846;28;20624;-75
2022/03/13 06:12:57;;;;;;;2.00;2.00;;;;;;;-8.43;76.76;93222.78;5011027;28;20645;-75
2022/03/13 06:15:25;;;;;;;2.40;2.40;;;;;;;-8.39;77.33;93219.66;5012224;28;20692;-75
2022/03/13 06:17:53;;;;;;;1.23;1.23;;;;;;;-8.55;77.29;93201.13;5012176;28;20230;-75
2022/03/13 06:20:20;;;;;;;1.70;1.60;;;;;;;-8.51;78.44;93211.91;5015416;28;20604;-74
2022/03/13 06:22:49;;;;;;;2.27;2.20;;;;;;;-8.43;78.48;93216.28;5007907;28;20534;-75
2022/03/13 06:25:18;;;;;;;2.30;2.20;;;;;;;-8.42;79.06;93202.44;5009988;28;20202;-75
2022/03/13 06:27:46;;;;;;;1.00;1.00;;;;;;;-8.36;79.14;93217.34;5014832;28;20495;-74
2022/03/13 06:30:16;;;;;;;1.83;1.73;;;;;;;-8.31;79.16;93217.50;5005669;28;20561;-72
2022/03/13 06:32:46;;;;;;;0.90;0.90;;;;;;;-8.29;78.14;93219.22;5008508;28;20446;-73
2022/03/13 06:35:13;;;;;;;1.27;1.27;;;;;;;-8.25;79.82;93218.53;5012606;28;20552;-72
2022/03/13 06:37:41;;;;;;;2.57;1.87;;;;;;;-8.16;78.60;93223.75;5012432;28;20597;-74
2022/03/13 06:40:13;;;;;;;1.97;1.97;;;;;;;-8.23;78.25;93212.09;5011531;28;20487;-74
2022/03/13 06:42:40;;;;;;;1.53;1.53;;;;;;;-8.21;80.00;93199.88;5010775;28;20308;-74
2022/03/13 06:45:10;;;;;;;2.20;1.37;;;;;;;-8.02;78.13;93226.72;5012169;28;20546;-73
2022/03/13 06:47:38;;;;;;;1.10;1.10;;;;;;;-8.06;78.25;93202.88;5009627;28;20330;-73
2022/03/13 06:50:07;;;;;;;0.97;0.97;;;;;;;-7.83;78.83;93219.19;5009449;28;20596;-73
2022/03/13 06:52:34;;;;;;;1.13;1.13;;;;;;;-7.86;78.47;93226.47;5011305;28;20506;-74
2022/03/13 06:55:04;;;;;;;2.57;2.57;;;;;;;-7.67;77.82;93231.22;5004684;28;20285;-74
2022/03/13 06:57:32;;;;;;;2.57;2.57;;;;;;;-7.50;77.48;93230.97;5013396;28;20582;-74
2022/03/13 07:00:00;;;;;;;2.53;2.53;;;;;;;-7.41;78.58;93210.00;5015423;28;20580;-72
2022/03/13 07:02:27;;;;;;;2.37;1.77;;;;;;;-7.21;76.56;93223.75;5003797;28;20536;-72
2022/03/13 07:04:56;;;;;;;4.00;2.67;;;;;;;-7.05;77.00;93222.66;5010228;28;20478;-74
2022/03/13 07:07:23;;;;;;;2.20;2.20;;;;;;;-6.90;76.11;93228.03;5007409;28;20261;-73
2022/03/13 07:09:50;;;;;;;2.57;2.57;;;;;;;-6.79;76.17;93218.53;5009119;28;20589;-73
2022/03/13 07:12:18;;;;;;;3.73;3.43;;;;;;;-6.77;75.41;93222.72;5011284;28;20611;-73
2022/03/13 07:14:48;;;;;;;2.90;2.87;;;;;;;-6.74;74.89;93226.88;5008736;28;20469;-73
2022/03/13 07:17:15;;;;;;;3.57;2.33;;;;;;;-6.99;74.54;93203.19;5006919;28;20199;-74
2022/03/13 07:19:44;;;;;;;1.93;1.93;;;;;;;-6.90;75.42;93196.13;5003488;28;20598;-74
2022/03/13 07:22:12;;;;;;;4.03;3.90;;;;;;;-6.77;75.86;93209.59;5006830;28;20702;-74
2022/03/13 07:24:39;;;;;;;2.43;2.43;;;;;;;-6.68;75.14;93219.69;5009593;28;20223;-75
2022/03/13 07:27:06;;;;;;;6.87;2.63;;;;;;;-6.64;75.03;93200.97;5012586;28;20490;-74
2022/03/13 07:29:33;;;;;;;2.40;1.83;;;;;;;-6.75;75.12;93193.28;5006719;28;20582;-73
2022/03/13 07:32:03;;;;;;;1.87;1.87;;;;;;;-6.70;76.37;93179.50;5009876;28;20271;-75
2022/03/13 07:34:30;;;;;;;2.47;2.37;;;;;;;-6.41;75.52;93208.22;5004569;28;20582;-73
2022/03/13 07:36:57;;;;;;;2.47;2.43;;;;;;;-6.28;73.51;93219.25;5005886;28;20605;-74
2022/03/13 07:39:25;;;;;;;1.73;1.73;;;;;;;-6.30;73.47;93214.28;5009017;28;20583;-74
2022/03/13 07:41:56;;;;;;;3.00;2.87;;;;;;;-6.12;73.91;93206.63;5010801;28;20691;-74
2022/03/13 07:44:23;;;;;;;4.43;4.10;;;;;;;-6.02;73.47;93211.00;5008995;28;20548;-77
2022/03/13 07:46:50;;;;;;;3.43;2.90;;;;;;;-6.16;73.76;93184.38;5011355;28;20657;-74
2022/03/13 07:49:19;;;;;;;2.23;2.23;;;;;;;-5.90;73.44;93203.97;5009502;28;20190;-74
2022/03/13 07:51:46;;;;;;;3.90;1.40;;;;;;;-5.83;73.28;93206.56;5006928;28;20637;-75
2022/03/13 07:54:14;;;;;;;1.70;1.70;;;;;;;-5.66;72.47;93210.31;5007688;28;20217;-75
2022/03/13 07:56:45;;;;;;;2.97;2.77;;;;;;;-5.58;72.49;93206.44;5003322;28;20452;-75
2022/03/13 07:59:12;;;;;;;3.00;3.00;;;;;;;-5.57;70.89;93204.00;5008953;28;20605;-75
2022/03/13 08:01:39;;;;;;;3.63;3.47;;;;;;;-5.47;71.28;93214.94;5008730;28;20552;-75
2022/03/13 08:04:06;;;;;;;2.00;2.00;;;;;;;-5.45;71.29;93205.94;5012415;28;20198;-75
2022/03/13 08:06:37;;;;;;;3.33;2.17;;;;;;;-5.70;72.10;93201.19;5007169;28;20198;-72
2022/03/13 08:09:05;;;;;;;1.57;1.57;;;;;;;-5.70;73.14;93198.72;5008623;28;20540;-75
2022/03/13 08:11:34;;;;;;;1.43;1.43;;;;;;;-5.59;74.40;93185.06;5007593;28;20202;-75
2022/03/13 08:14:01;;;;;;;1.43;1.43;;;;;;;-5.45;74.50;93184.63;5006459;28;20283;-74
2022/03/13 08:16:28;;;;;;;1.43;1.30;;;;;;;-5.24;73.76;93181.84;5006715;28;20654;-74
2022/03/13 08:18:56;;;;;;;1.30;1.30;;;;;;;-5.14;73.48;93190.31;5003692;28;20679;-75
2022/03/13 08:21:23;;;;;;;1.60;1.60;;;;;;;-4.93;73.79;93180.13;5009860;28;20649;-74
2022/03/13 08:23:51;;;;;;;2.13;2.13;;;;;;;-4.67;74.20;93175.00;5009068;28;20469;-73
2022/03/13 08:26:19;;;;;;;1.50;1.50;;;;;;;-4.40;72.34;93187.13;5002596;28;20587;-76
2022/03/13 08:28:46;;;;;;;2.77;2.67;;;;;;;-4.17;69.79;93200.75;5012027;28;20483;-76
2022/03/13 08:31:13;;;;;;;1.87;1.87;;;;;;;-4.03;69.36;93196.13;5007432;28;20206;-76
2022/03/13 08:33:42;;;;;;;1.97;1.97;;;;;;;-3.89;68.88;93187.38;5008396;28;20612;-75
2022/03/13 08:36:09;;;;;;;2.23;2.23;;;;;;;-3.70;66.26;93210.75;5003498;28;20204;-75
2022/03/13 08:38:36;;;;;;;1.70;1.70;;;;;;;-3.49;66.52;93195.53;5014369;28;20475;-75
2022/03/13 08:41:04;;;;;;;3.67;3.33;;;;;;;-3.19;67.48;93190.31;5012400;28;20239;-76
2022/03/13 08:43:32;;;;;;;3.13;3.03;;;;;;;-3.04;66.68;93191.41;5009952;28;20566;-76
2022/03/13 08:46:00;;;;;;;2.63;2.63;;;;;;;-2.90;66.21;93200.69;5005237;28;20568;-76
2022/03/13 08:48:28;;;;;;;2.27;2.27;;;;;;;-2.82;65.15;93201.66;5005341;28;20549;-76
2022/03/13 08:50:56;;;;;;;1.77;1.77;;;;;;;-2.87;64.73;93194.16;5003890;28;20545;-76
2022/03/13 08:53:23;;;;;;;1.83;1.83;;;;;;;-2.74;65.00;93203.44;5011732;28;20467;-76
2022/03/13 08:55:51;;;;;;;2.43;2.33;;;;;;;-2.61;64.41;93184.69;5007359;28;20472;-76
2022/03/13 08:58:19;;;;;;;2.77;2.77;;;;;;;-2.54;62.75;93206.22;5007380;28;20604;-75
2022/03/13 09:00:47;;;;;;;3.40;2.50;;;;;;;-2.28;62.36;93214.03;5004470;28;20617;-74
2022/03/13 09:03:14;;;;;;;2.53;2.53;;;;;;;-2.27;60.93;93193.44;5013548;28;20269;-76
2022/03/13 09:05:42;;;;;;;2.77;2.73;;;;;;;-1.83;60.12;93218.78;5009256;28;20586;-73
2022/03/13 09:08:09;;;;;;;1.97;1.97;;;;;;;-1.71;58.65;93212.34;5009084;28;20503;-74
2022/03/13 09:10:36;;;;;;;3.23;2.93;;;;;;;-1.39;58.30;93220.13;5008476;28;20229;-75
2022/03/13 09:13:04;;;;;;;1.70;1.70;;;;;;;-1.15;60.74;93184.88;5014222;28;20225;-74
2022/03/13 09:15:32;;;;;;;2.40;1.77;;;;;;;-0.93;57.87;93211.53;5003623;28;20976;-74
2022/03/13 09:18:02;;;;;;;1.83;1.83;;;;;;;-0.76;56.68;93206.72;5009064;28;20490;-74
2022/03/13 09:20:29;;;;;;;6.23;5.73;;;;;;;-0.60;55.98;93215.13;5009225;28;20563;-75
2022/03/13 09:22:57;;;;;;;2.07;2.07;;;;;;;-0.46;54.91;93211.13;5008121;28;20631;-75
2022/03/13 09:25:24;;;;;;;5.10;3.97;;;;;;;-0.31;55.73;93208.75;5008411;28;20638;-75
2022/03/13 09:27:52;;;;;;;3.93;3.73;;;;;;;-0.12;55.31;93208.06;5010349;28;20217;-75
2022/03/13 09:30:19;;;;;;;3.50;3.40;;;;;;;-0.01;55.26;93201.53;5010366;28;20559;-74
2022/03/13 09:32:49;;;;;;;15.53;2.67;;;;;;;0.29;55.48;93187.56;5015968;28;20464;-75
2022/03/13 09:35:17;;;;;;;4.60;4.33;;;;;;;0.58;54.02;93205.09;5007851;28;20553;-75
2022/03/13 09:37:44;;;;;;;5.63;5.30;;;;;;;0.63;54.91;93171.16;4998597;28;20217;-75
2022/03/13 09:40:12;;;;;;;12.07;9.07;;;;;;;1.05;55.75;93177.91;5006310;28;20551;-75
2022/03/13 09:42:39;;;;;;;4.93;4.43;;;;;;;1.17;52.42;93206.13;5006515;28;20244;-75
2022/03/13 09:45:07;;;;;;;5.40;5.00;;;;;;;1.36;53.81;93181.22;5002030;28;20474;-74
2022/03/13 09:47:36;;;;;;;4.60;4.43;;;;;;;1.53;53.73;93174.59;5009568;28;20549;-76
2022/03/13 09:50:07;;;;;;;7.20;6.43;;;;;;;1.70;52.61;93189.53;5011441;28;20578;-74
2022/03/13 09:52:37;;;;;;;7.00;6.17;;;;;;;1.75;52.25;93190.41;5011213;28;20456;-75
2022/03/13 09:55:05;;;;;;;5.93;5.53;;;;;;;1.92;51.85;93188.69;5015935;28;20474;-74
2022/03/13 09:57:33;;;;;;;3.87;3.73;;;;;;;2.19;51.04;93180.34;5013768;28;20606;-74
2022/03/13 10:00:01;;;;;;;6.80;4.33;;;;;;;2.09;50.34;93172.88;5001094;28;20587;-74
2022/03/13 10:02:34;;;;;;;7.33;6.23;;;;;;;2.25;50.53;93181.19;4999630;28;20257;-75
2022/03/13 10:05:10;;;;;;;4.10;3.90;;;;;;;2.49;49.63;93185.22;5012381;28;20553;-74
2022/03/13 10:08:02;;;;;;;4.97;4.07;;;;;;;2.85;49.09;93182.59;5013137;28;20645;-73
2022/03/13 10:10:31;;;;;;;4.17;3.87;;;;;;;3.15;49.40;93165.81;4997794;28;20571;-74
2022/03/13 10:12:58;;;;;;;5.87;5.47;;;;;;;3.15;48.04;93175.78;5012789;28;20206;-74
2022/03/13 10:15:26;;;;;;;5.73;5.33;;;;;;;3.31;46.05;93185.69;5013012;28;20194;-73
2022/03/13 10:17:53;;;;;;;8.83;5.63;;;;;;;3.46;46.70;93177.25;5010955;28;20204;-74
2022/03/13 10:20:24;;;;;;;7.10;6.53;;;;;;;3.70;45.06;93184.56;5011875;28;20606;-73
2022/03/13 10:23:05;;;;;;;7.57;5.57;;;;;;;4.02;45.65;93180.94;5005700;28;20490;-73
2022/03/13 10:25:34;;;;;;;11.20;7.57;;;;;;;4.22;44.62;93188.28;5013439;28;20544;-73
2022/03/13 10:28:19;;;;;;;5.57;5.17;;;;;;;4.47;40.62;93204.66;5009203;28;20551;-73
2022/03/13 10:30:48;;;;;;;3.90;3.67;;;;;;;5.18;39.24;93218.03;5005915;28;20477;-74
2022/03/13 10:33:17;;;;;;;5.67;5.23;;;;;;;6.33;37.15;93223.84;5003376;28;20213;-73
2022/03/13 10:35:48;;;;;;;7.43;4.43;;;;;;;7.80;32.02;93238.50;4995492;28;20385;-74
2022/03/13 10:38:17;;;;;;;3.27;3.07;;;;;;;8.40;28.25;93268.16;4997064;28;20672;-74
2022/03/13 10:40:45;;;;;;;2.43;2.30;;;;;;;9.43;27.60;93249.50;4997435;28;20326;-75
2022/03/13 10:43:19;;;;;;;5.83;5.27;;;;;;;10.49;26.84;93263.16;4997725;28;20578;-74
2022/03/13 10:45:54;;;;;;;2.80;2.60;;;;;;;10.74;25.62;93267.38;5010893;28;21024;-73
2022/03/13 10:48:23;;;;;;;3.03;2.53;;;;;;;11.03;24.77;93278.22;5010165;28;20467;-74
2022/03/13 10:50:54;;;;;;;3.17;2.53;;;;;;;11.06;24.92;93265.47;5008863;28;20597;-73
2022/03/13 10:53:22;;;;;;;7.23;6.57;;;;;;;11.74;24.92;93252.91;5008301;28;20522;-74
2022/03/13 10:56:06;;;;;;;5.60;5.17;;;;;;;12.39;24.55;93242.78;5015103;28;20661;-74
2022/03/13 10:58:35;;;;;;;4.17;3.97;;;;;;;12.98;24.87;93244.63;5011262;28;20491;-75
2022/03/13 11:01:04;;;;;;;5.30;3.33;;;;;;;13.24;22.64;93251.97;5015576;28;20237;-72
2022/03/13 11:03:34;;;;;;;5.13;4.73;;;;;;;12.17;23.59;93266.53;5006868;28;20514;-73
2022/03/13 11:06:03;;;;;;;7.73;4.23;;;;;;;12.03;23.75;93256.91;5011753;28;20205;-75
2022/03/13 11:08:34;;;;;;;4.80;3.87;;;;;;;11.83;23.26;93259.38;5011236;28;20194;-76
2022/03/13 11:11:02;;;;;;;3.20;2.77;;;;;;;11.98;22.37;93262.16;5011503;28;20602;-75
2022/03/13 11:13:30;;;;;;;3.43;3.13;;;;;;;12.13;24.18;93232.88;5008343;28;20574;-74
2022/03/13 11:15:59;;;;;;;2.00;1.90;;;;;;;12.63;23.41;93222.41;5011344;28;20594;-74
2022/03/13 11:18:32;;;;;;;2.70;2.60;;;;;;;13.12;24.50;93206.03;5007013;28;20264;-74
2022/03/13 11:21:00;;;;;;;2.77;2.67;;;;;;;12.72;22.33;93229.66;5003545;28;20676;-74
2022/03/13 11:23:32;;;;;;;3.80;3.43;;;;;;;12.04;22.32;93230.69;5006175;28;20631;-76
2022/03/13 11:26:00;;;;;;;3.07;2.83;;;;;;;11.55;23.59;93212.25;4999219;28;20220;-73
2022/03/13 11:28:28;;;;;;;5.87;4.20;;;;;;;11.40;24.81;93187.50;5010295;28;20565;-73
2022/03/13 11:30:56;;;;;;;3.40;3.10;;;;;;;10.72;24.91;93182.38;4999737;28;20590;-73
2022/03/13 11:33:41;;;;;;;7.50;5.67;;;;;;;10.28;25.55;93172.06;4995543;28;20512;-73
2022/03/13 11:36:28;;;;;;;10.27;5.67;;;;;;;9.62;27.75;93159.84;5007808;28;20533;-73
2022/03/13 11:39:00;;;;;;;5.43;2.50;;;;;;;8.90;27.81;93157.75;5002327;28;20494;-74